sensor_id;sensor_type;location;lat;lon;timestamp;P1;durP1;ratioP1;P2;durP2;ratioP2
14994;SDS011;7593;49.006;8.372;2022-09-09T00:02:02;4.43;;;2.00;;
14994;SDS011;7593;49.006;8.372;2022-09-09T00:04:40;4.10;;;2.15;;
14994;SDS011;7593;49.006;8.372;2022-09-09T00:07:13;6.65;;;2.35;;
14994;SDS011;7593;49.006;8.372;2022-09-09T00:09:47;6.80;;;1.80;;
14994;SDS011;7593;49.006;8.372;2022-09-09T00:12:22;4.50;;;1.83;;
14994;SDS011;7593;49.006;8.372;2022-09-09T00:14:58;5.40;;;1.80;;
14994;SDS011;7593;49.006;8.372;2022-09-09T00:17:31;3.70;;;1.60;;
14994;SDS011;7593;49.006;8.372;2022-09-09T00:20:09;2.63;;;1.70;;
14994;SDS011;7593;49.006;8.372;2022-09-09T00:22:40;3.25;;;1.52;;
14994;SDS011;7593;49.006;8.372;2022-09-09T00:25:14;4.90;;;1.80;;
14994;SDS011;7593;49.006;8.372;2022-09-09T00:27:47;5.38;;;1.52;;
14994;SDS011;7593;49.006;8.372;2022-09-09T00:30:16;6.78;;;1.70;;
14994;SDS011;7593;49.006;8.372;2022-09-09T00:32:45;3.03;;;1.80;;
14994;SDS011;7593;49.006;8.372;2022-09-09T00:35:16;6.28;;;1.58;;
14994;SDS011;7593;49.006;8.372;2022-09-09T00:37:47;5.32;;;1.90;;
14994;SDS011;7593;49.006;8.372;2022-09-09T00:40:18;4.25;;;2.17;;
14994;SDS011;7593;49.006;8.372;2022-09-09T00:42:52;4.63;;;1.90;;
14994;SDS011;7593;49.006;8.372;2022-09-09T00:45:37;4.10;;;1.85;;
14994;SDS011;7593;49.006;8.372;2022-09-09T00:48:22;5.03;;;1.83;;
14994;SDS011;7593;49.006;8.372;2022-09-09T00:50:59;3.33;;;1.85;;
14994;SDS011;7593;49.006;8.372;2022-09-09T00:53:37;5.10;;;1.85;;
14994;SDS011;7593;49.006;8.372;2022-09-09T00:56:09;4.63;;;1.73;;
14994;SDS011;7593;49.006;8.372;2022-09-09T00:58:39;4.65;;;2.05;;
14994;SDS011;7593;49.006;8.372;2022-09-09T01:01:09;4.80;;;1.90;;
14994;SDS011;7593;49.006;8.372;2022-09-09T01:03:38;5.25;;;2.05;;
14994;SDS011;7593;49.006;8.372;2022-09-09T01:06:16;7.60;;;2.25;;
14994;SDS011;7593;49.006;8.372;2022-09-09T01:09:00;5.55;;;1.77;;
14994;SDS011;7593;49.006;8.372;2022-09-09T01:11:37;4.75;;;1.73;;
14994;SDS011;7593;49.006;8.372;2022-09-09T01:14:24;6.25;;;2.00;;
14994;SDS011;7593;49.006;8.372;2022-09-09T01:17:07;8.48;;;1.95;;
14994;SDS011;7593;49.006;8.372;2022-09-09T01:19:40;5.88;;;2.00;;
14994;SDS011;7593;49.006;8.372;2022-09-09T01:22:22;5.43;;;2.15;;
14994;SDS011;7593;49.006;8.372;2022-09-09T01:25:07;5.97;;;1.58;;
14994;SDS011;7593;49.006;8.372;2022-09-09T01:27:54;5.78;;;1.50;;
14994;SDS011;7593;49.006;8.372;2022-09-09T01:30:23;6.88;;;1.55;;
14994;SDS011;7593;49.006;8.372;2022-09-09T01:32:53;3.13;;;1.33;;
14994;SDS011;7593;49.006;8.372;2022-09-09T01:35:27;4.50;;;1.35;;
14994;SDS011;7593;49.006;8.372;2022-09-09T01:38:00;3.03;;;1.40;;
14994;SDS011;7593;49.006;8.372;2022-09-09T01:40:27;4.57;;;1.55;;
14994;SDS011;7593;49.006;8.372;2022-09-09T01:42:55;4.50;;;1.40;;
14994;SDS011;7593;49.006;8.372;2022-09-09T01:45:22;2.97;;;1.40;;
14994;SDS011;7593;49.006;8.372;2022-09-09T01:47:51;5.68;;;1.67;;
14994;SDS011;7593;49.006;8.372;2022-09-09T01:50:18;5.63;;;1.90;;
14994;SDS011;7593;49.006;8.372;2022-09-09T01:52:46;5.22;;;1.88;;
14994;SDS011;7593;49.006;8.372;2022-09-09T01:55:16;2.47;;;1.50;;
14994;SDS011;7593;49.006;8.372;2022-09-09T01:57:47;5.68;;;2.28;;
14994;SDS011;7593;49.006;8.372;2022-09-09T02:00:23;4.05;;;1.83;;
14994;SDS011;7593;49.006;8.372;2022-09-09T02:02:53;5.13;;;1.90;;
14994;SDS011;7593;49.006;8.372;2022-09-09T02:05:28;5.00;;;1.88;;
14994;SDS011;7593;49.006;8.372;2022-09-09T02:08:03;5.70;;;2.17;;
14994;SDS011;7593;49.006;8.372;2022-09-09T02:10:35;4.68;;;1.92;;
14994;SDS011;7593;49.006;8.372;2022-09-09T02:13:09;5.22;;;2.00;;
14994;SDS011;7593;49.006;8.372;2022-09-09T02:15:41;5.28;;;1.77;;
14994;SDS011;7593;49.006;8.372;2022-09-09T02:18:13;3.25;;;1.50;;
14994;SDS011;7593;49.006;8.372;2022-09-09T02:20:43;4.00;;;1.55;;
14994;SDS011;7593;49.006;8.372;2022-09-09T02:23:12;4.05;;;1.60;;
14994;SDS011;7593;49.006;8.372;2022-09-09T02:25:40;5.53;;;1.67;;
14994;SDS011;7593;49.006;8.372;2022-09-09T02:28:09;9.15;;;1.98;;
14994;SDS011;7593;49.006;8.372;2022-09-09T02:30:38;4.75;;;1.50;;
14994;SDS011;7593;49.006;8.372;2022-09-09T02:33:09;5.20;;;1.75;;
14994;SDS011;7593;49.006;8.372;2022-09-09T02:35:38;2.60;;;1.17;;
14994;SDS011;7593;49.006;8.372;2022-09-09T02:38:09;6.05;;;1.58;;
14994;SDS011;7593;49.006;8.372;2022-09-09T02:40:39;3.55;;;1.75;;
14994;SDS011;7593;49.006;8.372;2022-09-09T02:43:06;2.30;;;1.58;;
14994;SDS011;7593;49.006;8.372;2022-09-09T02:45:34;5.38;;;1.70;;
14994;SDS011;7593;49.006;8.372;2022-09-09T02:48:11;3.92;;;1.40;;
14994;SDS011;7593;49.006;8.372;2022-09-09T02:50:41;3.03;;;1.38;;
14994;SDS011;7593;49.006;8.372;2022-09-09T02:53:16;3.63;;;1.70;;
14994;SDS011;7593;49.006;8.372;2022-09-09T02:55:46;2.75;;;1.42;;
14994;SDS011;7593;49.006;8.372;2022-09-09T02:58:16;3.85;;;1.67;;
14994;SDS011;7593;49.006;8.372;2022-09-09T03:00:45;3.25;;;1.50;;
14994;SDS011;7593;49.006;8.372;2022-09-09T03:03:15;7.55;;;1.83;;
14994;SDS011;7593;49.006;8.372;2022-09-09T03:05:42;4.93;;;1.80;;
14994;SDS011;7593;49.006;8.372;2022-09-09T03:08:09;3.63;;;1.67;;
14994;SDS011;7593;49.006;8.372;2022-09-09T03:10:38;4.35;;;1.70;;
14994;SDS011;7593;49.006;8.372;2022-09-09T03:13:05;4.03;;;1.48;;
14994;SDS011;7593;49.006;8.372;2022-09-09T03:15:33;3.22;;;1.40;;
14994;SDS011;7593;49.006;8.372;2022-09-09T03:18:00;3.20;;;1.50;;
14994;SDS011;7593;49.006;8.372;2022-09-09T03:20:28;3.58;;;1.50;;
14994;SDS011;7593;49.006;8.372;2022-09-09T03:22:56;2.80;;;1.50;;
14994;SDS011;7593;49.006;8.372;2022-09-09T03:25:23;4.40;;;1.50;;
14994;SDS011;7593;49.006;8.372;2022-09-09T03:27:50;2.88;;;1.58;;
14994;SDS011;7593;49.006;8.372;2022-09-09T03:30:19;3.95;;;1.60;;
14994;SDS011;7593;49.006;8.372;2022-09-09T03:32:46;4.20;;;1.40;;
14994;SDS011;7593;49.006;8.372;2022-09-09T03:35:13;2.22;;;1.20;;
14994;SDS011;7593;49.006;8.372;2022-09-09T03:37:41;3.75;;;1.60;;
14994;SDS011;7593;49.006;8.372;2022-09-09T03:40:09;5.82;;;1.65;;
14994;SDS011;7593;49.006;8.372;2022-09-09T03:42:36;2.47;;;1.60;;
14994;SDS011;7593;49.006;8.372;2022-09-09T03:45:04;4.60;;;1.65;;
14994;SDS011;7593;49.006;8.372;2022-09-09T03:47:32;2.45;;;1.40;;
14994;SDS011;7593;49.006;8.372;2022-09-09T03:49:59;3.00;;;1.58;;
14994;SDS011;7593;49.006;8.372;2022-09-09T03:52:26;5.88;;;1.40;;
14994;SDS011;7593;49.006;8.372;2022-09-09T03:54:54;4.05;;;1.40;;
14994;SDS011;7593;49.006;8.372;2022-09-09T03:57:21;5.60;;;1.42;;
14994;SDS011;7593;49.006;8.372;2022-09-09T03:59:48;3.20;;;1.40;;
14994;SDS011;7593;49.006;8.372;2022-09-09T04:02:15;2.92;;;1.30;;
14994;SDS011;7593;49.006;8.372;2022-09-09T04:04:41;2.10;;;1.20;;
14994;SDS011;7593;49.006;8.372;2022-09-09T04:07:08;3.22;;;1.38;;
14994;SDS011;7593;49.006;8.372;2022-09-09T04:09:36;5.95;;;1.60;;
14994;SDS011;7593;49.006;8.372;2022-09-09T04:12:05;3.15;;;1.35;;
14994;SDS011;7593;49.006;8.372;2022-09-09T04:14:32;5.25;;;1.45;;
14994;SDS011;7593;49.006;8.372;2022-09-09T04:16:59;3.08;;;1.42;;
14994;SDS011;7593;49.006;8.372;2022-09-09T04:19:26;2.72;;;1.40;;
14994;SDS011;7593;49.006;8.372;2022-09-09T04:21:53;2.40;;;1.30;;
14994;SDS011;7593;49.006;8.372;2022-09-09T04:24:19;3.63;;;1.30;;
14994;SDS011;7593;49.006;8.372;2022-09-09T04:26:46;2.47;;;1.50;;
14994;SDS011;7593;49.006;8.372;2022-09-09T04:29:14;5.20;;;1.30;;
14994;SDS011;7593;49.006;8.372;2022-09-09T04:31:41;3.90;;;1.40;;
14994;SDS011;7593;49.006;8.372;2022-09-09T04:34:08;2.92;;;1.13;;
14994;SDS011;7593;49.006;8.372;2022-09-09T04:36:35;2.95;;;1.50;;
14994;SDS011;7593;49.006;8.372;2022-09-09T04:39:02;1.80;;;1.25;;
14994;SDS011;7593;49.006;8.372;2022-09-09T04:41:29;6.03;;;1.52;;
14994;SDS011;7593;49.006;8.372;2022-09-09T04:43:56;3.20;;;1.40;;
14994;SDS011;7593;49.006;8.372;2022-09-09T04:46:25;2.45;;;1.40;;
14994;SDS011;7593;49.006;8.372;2022-09-09T04:48:52;2.75;;;1.02;;
14994;SDS011;7593;49.006;8.372;2022-09-09T04:51:19;3.67;;;1.35;;
14994;SDS011;7593;49.006;8.372;2022-09-09T04:53:46;3.30;;;1.13;;
14994;SDS011;7593;49.006;8.372;2022-09-09T04:56:14;3.58;;;1.30;;
14994;SDS011;7593;49.006;8.372;2022-09-09T04:58:42;3.15;;;1.20;;
14994;SDS011;7593;49.006;8.372;2022-09-09T05:01:09;4.47;;;1.45;;
14994;SDS011;7593;49.006;8.372;2022-09-09T05:03:38;3.25;;;1.17;;
14994;SDS011;7593;49.006;8.372;2022-09-09T05:06:06;5.05;;;1.10;;
14994;SDS011;7593;49.006;8.372;2022-09-09T05:08:34;4.65;;;1.20;;
14994;SDS011;7593;49.006;8.372;2022-09-09T05:11:02;3.05;;;1.13;;
14994;SDS011;7593;49.006;8.372;2022-09-09T05:13:29;2.25;;;1.10;;
14994;SDS011;7593;49.006;8.372;2022-09-09T05:15:57;4.22;;;1.15;;
14994;SDS011;7593;49.006;8.372;2022-09-09T05:18:24;2.42;;;1.20;;
14994;SDS011;7593;49.006;8.372;2022-09-09T05:20:52;4.43;;;1.40;;
14994;SDS011;7593;49.006;8.372;2022-09-09T05:23:24;4.35;;;1.20;;
14994;SDS011;7593;49.006;8.372;2022-09-09T05:25:54;2.65;;;1.10;;
14994;SDS011;7593;49.006;8.372;2022-09-09T05:28:22;1.85;;;1.05;;
14994;SDS011;7593;49.006;8.372;2022-09-09T05:30:54;2.75;;;1.20;;
14994;SDS011;7593;49.006;8.372;2022-09-09T05:33:25;4.70;;;1.33;;
14994;SDS011;7593;49.006;8.372;2022-09-09T05:35:58;2.33;;;0.98;;
14994;SDS011;7593;49.006;8.372;2022-09-09T05:38:26;3.05;;;1.20;;
14994;SDS011;7593;49.006;8.372;2022-09-09T05:40:54;2.10;;;1.05;;
14994;SDS011;7593;49.006;8.372;2022-09-09T05:43:21;3.33;;;1.00;;
14994;SDS011;7593;49.006;8.372;2022-09-09T05:45:57;2.50;;;1.15;;
14994;SDS011;7593;49.006;8.372;2022-09-09T05:48:27;5.32;;;1.23;;
14994;SDS011;7593;49.006;8.372;2022-09-09T05:50:54;5.57;;;1.30;;
14994;SDS011;7593;49.006;8.372;2022-09-09T05:53:22;2.67;;;1.20;;
14994;SDS011;7593;49.006;8.372;2022-09-09T05:55:49;2.42;;;1.10;;
14994;SDS011;7593;49.006;8.372;2022-09-09T05:58:16;4.90;;;1.20;;
14994;SDS011;7593;49.006;8.372;2022-09-09T06:00:43;2.00;;;1.10;;
14994;SDS011;7593;49.006;8.372;2022-09-09T06:03:10;2.47;;;1.25;;
14994;SDS011;7593;49.006;8.372;2022-09-09T06:05:37;2.90;;;1.02;;
14994;SDS011;7593;49.006;8.372;2022-09-09T06:08:04;4.35;;;1.25;;
14994;SDS011;7593;49.006;8.372;2022-09-09T06:10:32;3.72;;;1.20;;
14994;SDS011;7593;49.006;8.372;2022-09-09T06:12:59;6.00;;;1.33;;
14994;SDS011;7593;49.006;8.372;2022-09-09T06:15:26;2.65;;;1.10;;
14994;SDS011;7593;49.006;8.372;2022-09-09T06:17:55;3.83;;;0.90;;
14994;SDS011;7593;49.006;8.372;2022-09-09T06:20:22;4.90;;;1.65;;
14994;SDS011;7593;49.006;8.372;2022-09-09T06:22:49;5.50;;;1.50;;
14994;SDS011;7593;49.006;8.372;2022-09-09T06:25:15;4.55;;;1.38;;
14994;SDS011;7593;49.006;8.372;2022-09-09T06:27:47;3.95;;;1.77;;
14994;SDS011;7593;49.006;8.372;2022-09-09T06:30:15;4.80;;;1.65;;
14994;SDS011;7593;49.006;8.372;2022-09-09T06:32:43;4.32;;;1.40;;
14994;SDS011;7593;49.006;8.372;2022-09-09T06:35:10;5.88;;;1.55;;
14994;SDS011;7593;49.006;8.372;2022-09-09T06:37:36;4.35;;;1.60;;
14994;SDS011;7593;49.006;8.372;2022-09-09T06:40:03;4.30;;;1.48;;
14994;SDS011;7593;49.006;8.372;2022-09-09T06:42:31;5.30;;;1.27;;
14994;SDS011;7593;49.006;8.372;2022-09-09T06:44:59;5.55;;;1.30;;
14994;SDS011;7593;49.006;8.372;2022-09-09T06:47:25;2.95;;;1.27;;
14994;SDS011;7593;49.006;8.372;2022-09-09T06:49:55;4.47;;;1.55;;
14994;SDS011;7593;49.006;8.372;2022-09-09T06:52:21;4.50;;;1.30;;
14994;SDS011;7593;49.006;8.372;2022-09-09T06:54:49;2.65;;;1.20;;
14994;SDS011;7593;49.006;8.372;2022-09-09T06:57:16;2.80;;;1.50;;
14994;SDS011;7593;49.006;8.372;2022-09-09T06:59:43;5.05;;;1.75;;
14994;SDS011;7593;49.006;8.372;2022-09-09T07:02:11;3.20;;;1.60;;
14994;SDS011;7593;49.006;8.372;2022-09-09T07:04:38;3.47;;;1.40;;
14994;SDS011;7593;49.006;8.372;2022-09-09T07:07:04;4.82;;;1.58;;
14994;SDS011;7593;49.006;8.372;2022-09-09T07:09:32;7.63;;;1.45;;
14994;SDS011;7593;49.006;8.372;2022-09-09T07:11:59;6.40;;;1.50;;
14994;SDS011;7593;49.006;8.372;2022-09-09T07:14:26;5.65;;;1.40;;
14994;SDS011;7593;49.006;8.372;2022-09-09T07:16:53;3.65;;;1.40;;
14994;SDS011;7593;49.006;8.372;2022-09-09T07:19:21;3.80;;;1.50;;
14994;SDS011;7593;49.006;8.372;2022-09-09T07:21:48;4.40;;;1.52;;
14994;SDS011;7593;49.006;8.372;2022-09-09T07:24:15;4.15;;;1.55;;
14994;SDS011;7593;49.006;8.372;2022-09-09T07:26:42;4.75;;;1.42;;
14994;SDS011;7593;49.006;8.372;2022-09-09T07:29:10;3.70;;;1.45;;
14994;SDS011;7593;49.006;8.372;2022-09-09T07:31:38;2.45;;;1.40;;
14994;SDS011;7593;49.006;8.372;2022-09-09T07:34:05;2.58;;;1.50;;
14994;SDS011;7593;49.006;8.372;2022-09-09T07:36:34;5.25;;;1.40;;
14994;SDS011;7593;49.006;8.372;2022-09-09T07:39:04;4.18;;;1.13;;
14994;SDS011;7593;49.006;8.372;2022-09-09T07:41:33;2.92;;;1.40;;
14994;SDS011;7593;49.006;8.372;2022-09-09T07:44:04;4.35;;;1.38;;
14994;SDS011;7593;49.006;8.372;2022-09-09T07:46:32;2.55;;;1.23;;
14994;SDS011;7593;49.006;8.372;2022-09-09T07:49:00;2.85;;;1.25;;
14994;SDS011;7593;49.006;8.372;2022-09-09T07:51:27;3.83;;;1.30;;
14994;SDS011;7593;49.006;8.372;2022-09-09T07:53:57;2.50;;;1.20;;
14994;SDS011;7593;49.006;8.372;2022-09-09T07:56:25;3.35;;;1.40;;
14994;SDS011;7593;49.006;8.372;2022-09-09T07:58:53;2.88;;;1.25;;
14994;SDS011;7593;49.006;8.372;2022-09-09T08:01:22;1.88;;;1.10;;
14994;SDS011;7593;49.006;8.372;2022-09-09T08:03:52;3.78;;;1.42;;
14994;SDS011;7593;49.006;8.372;2022-09-09T08:06:20;3.30;;;1.60;;
14994;SDS011;7593;49.006;8.372;2022-09-09T08:08:50;4.45;;;1.20;;
14994;SDS011;7593;49.006;8.372;2022-09-09T08:11:19;3.50;;;1.20;;
14994;SDS011;7593;49.006;8.372;2022-09-09T08:13:46;3.90;;;1.48;;
14994;SDS011;7593;49.006;8.372;2022-09-09T08:16:14;2.95;;;1.45;;
14994;SDS011;7593;49.006;8.372;2022-09-09T08:18:43;3.70;;;1.55;;
14994;SDS011;7593;49.006;8.372;2022-09-09T08:21:11;4.50;;;1.33;;
14994;SDS011;7593;49.006;8.372;2022-09-09T08:23:40;2.38;;;1.30;;
14994;SDS011;7593;49.006;8.372;2022-09-09T08:26:09;4.60;;;1.70;;
14994;SDS011;7593;49.006;8.372;2022-09-09T08:28:39;2.42;;;1.40;;
14994;SDS011;7593;49.006;8.372;2022-09-09T08:31:07;4.32;;;1.40;;
14994;SDS011;7593;49.006;8.372;2022-09-09T08:33:35;3.83;;;1.40;;
14994;SDS011;7593;49.006;8.372;2022-09-09T08:36:03;3.40;;;1.30;;
14994;SDS011;7593;49.006;8.372;2022-09-09T08:38:31;2.55;;;1.20;;
14994;SDS011;7593;49.006;8.372;2022-09-09T08:41:00;6.13;;;1.65;;
14994;SDS011;7593;49.006;8.372;2022-09-09T08:43:36;5.25;;;1.60;;
14994;SDS011;7593;49.006;8.372;2022-09-09T08:46:05;2.30;;;1.20;;
14994;SDS011;7593;49.006;8.372;2022-09-09T08:48:40;3.50;;;1.35;;
14994;SDS011;7593;49.006;8.372;2022-09-09T08:51:13;5.68;;;1.52;;
14994;SDS011;7593;49.006;8.372;2022-09-09T08:53:41;4.55;;;1.50;;
14994;SDS011;7593;49.006;8.372;2022-09-09T08:56:11;3.75;;;1.45;;
14994;SDS011;7593;49.006;8.372;2022-09-09T08:58:42;3.40;;;1.50;;
14994;SDS011;7593;49.006;8.372;2022-09-09T09:01:21;5.10;;;1.35;;
14994;SDS011;7593;49.006;8.372;2022-09-09T09:04:07;7.55;;;1.83;;
14994;SDS011;7593;49.006;8.372;2022-09-09T09:06:49;3.95;;;1.80;;
14994;SDS011;7593;49.006;8.372;2022-09-09T09:09:21;4.68;;;1.77;;
14994;SDS011;7593;49.006;8.372;2022-09-09T09:11:53;5.47;;;1.70;;
14994;SDS011;7593;49.006;8.372;2022-09-09T09:14:26;4.45;;;1.58;;
14994;SDS011;7593;49.006;8.372;2022-09-09T09:16:57;6.32;;;1.60;;
14994;SDS011;7593;49.006;8.372;2022-09-09T09:19:26;7.30;;;1.75;;
14994;SDS011;7593;49.006;8.372;2022-09-09T09:21:56;6.28;;;2.20;;
14994;SDS011;7593;49.006;8.372;2022-09-09T09:24:43;5.47;;;1.58;;
14994;SDS011;7593;49.006;8.372;2022-09-09T09:27:16;4.15;;;1.48;;
14994;SDS011;7593;49.006;8.372;2022-09-09T09:29:48;3.42;;;1.40;;
14994;SDS011;7593;49.006;8.372;2022-09-09T09:32:18;3.05;;;1.38;;
14994;SDS011;7593;49.006;8.372;2022-09-09T09:34:48;5.22;;;1.25;;
14994;SDS011;7593;49.006;8.372;2022-09-09T09:37:17;2.55;;;1.33;;
14994;SDS011;7593;49.006;8.372;2022-09-09T09:39:52;3.88;;;1.10;;
14994;SDS011;7593;49.006;8.372;2022-09-09T09:42:19;2.45;;;0.93;;
14994;SDS011;7593;49.006;8.372;2022-09-09T09:44:47;2.83;;;1.23;;
14994;SDS011;7593;49.006;8.372;2022-09-09T09:47:15;3.83;;;1.40;;
14994;SDS011;7593;49.006;8.372;2022-09-09T09:49:51;2.70;;;1.40;;
14994;SDS011;7593;49.006;8.372;2022-09-09T09:52:21;7.15;;;1.38;;
14994;SDS011;7593;49.006;8.372;2022-09-09T09:54:50;2.63;;;1.23;;
14994;SDS011;7593;49.006;8.372;2022-09-09T09:57:18;3.70;;;1.30;;
14994;SDS011;7593;49.006;8.372;2022-09-09T09:59:59;3.83;;;1.27;;
14994;SDS011;7593;49.006;8.372;2022-09-09T10:02:31;3.50;;;1.40;;
14994;SDS011;7593;49.006;8.372;2022-09-09T10:05:06;3.88;;;1.42;;
14994;SDS011;7593;49.006;8.372;2022-09-09T10:07:40;2.80;;;1.02;;
14994;SDS011;7593;49.006;8.372;2022-09-09T10:10:18;3.67;;;1.65;;
14994;SDS011;7593;49.006;8.372;2022-09-09T10:12:52;3.78;;;1.15;;
14994;SDS011;7593;49.006;8.372;2022-09-09T10:15:30;2.30;;;1.17;;
14994;SDS011;7593;49.006;8.372;2022-09-09T10:18:06;4.00;;;1.40;;
14994;SDS011;7593;49.006;8.372;2022-09-09T10:20:50;3.33;;;1.30;;
14994;SDS011;7593;49.006;8.372;2022-09-09T10:23:29;2.33;;;1.20;;
14994;SDS011;7593;49.006;8.372;2022-09-09T10:26:15;3.97;;;1.38;;
14994;SDS011;7593;49.006;8.372;2022-09-09T10:29:01;5.40;;;1.60;;
14994;SDS011;7593;49.006;8.372;2022-09-09T10:31:41;2.78;;;1.40;;
14994;SDS011;7593;49.006;8.372;2022-09-09T10:34:17;3.95;;;1.30;;
14994;SDS011;7593;49.006;8.372;2022-09-09T10:36:52;4.18;;;1.40;;
14994;SDS011;7593;49.006;8.372;2022-09-09T10:39:23;3.92;;;1.50;;
14994;SDS011;7593;49.006;8.372;2022-09-09T10:42:00;4.10;;;1.52;;
14994;SDS011;7593;49.006;8.372;2022-09-09T10:44:38;4.57;;;1.63;;
14994;SDS011;7593;49.006;8.372;2022-09-09T10:47:23;2.55;;;1.13;;
14994;SDS011;7593;49.006;8.372;2022-09-09T10:53:07;4.18;;;1.15;;
14994;SDS011;7593;49.006;8.372;2022-09-09T10:55:40;6.75;;;1.50;;
14994;SDS011;7593;49.006;8.372;2022-09-09T10:58:10;1.55;;;0.90;;
14994;SDS011;7593;49.006;8.372;2022-09-09T11:00:41;4.10;;;1.10;;
14994;SDS011;7593;49.006;8.372;2022-09-09T11:03:13;2.85;;;1.00;;
14994;SDS011;7593;49.006;8.372;2022-09-09T11:05:45;1.75;;;0.90;;
14994;SDS011;7593;49.006;8.372;2022-09-09T11:08:17;2.30;;;1.05;;
14994;SDS011;7593;49.006;8.372;2022-09-09T11:10:48;5.18;;;1.40;;
14994;SDS011;7593;49.006;8.372;2022-09-09T11:13:20;3.50;;;1.30;;
14994;SDS011;7593;49.006;8.372;2022-09-09T11:15:52;4.05;;;1.48;;
14994;SDS011;7593;49.006;8.372;2022-09-09T11:18:25;2.97;;;1.40;;
14994;SDS011;7593;49.006;8.372;2022-09-09T11:20:57;6.78;;;1.33;;
14994;SDS011;7593;49.006;8.372;2022-09-09T11:23:29;3.92;;;1.52;;
14994;SDS011;7593;49.006;8.372;2022-09-09T11:26:04;2.65;;;1.30;;
14994;SDS011;7593;49.006;8.372;2022-09-09T11:28:39;5.07;;;1.30;;
14994;SDS011;7593;49.006;8.372;2022-09-09T11:31:21;4.15;;;1.30;;
14994;SDS011;7593;49.006;8.372;2022-09-09T11:34:04;4.55;;;1.52;;
14994;SDS011;7593;49.006;8.372;2022-09-09T11:42:45;3.92;;;1.35;;
14994;SDS011;7593;49.006;8.372;2022-09-09T11:45:21;5.80;;;1.60;;
14994;SDS011;7593;49.006;8.372;2022-09-09T11:47:53;2.63;;;1.42;;
14994;SDS011;7593;49.006;8.372;2022-09-09T11:50:28;2.60;;;1.20;;
14994;SDS011;7593;49.006;8.372;2022-09-09T11:53:04;4.07;;;1.45;;
14994;SDS011;7593;49.006;8.372;2022-09-09T11:55:48;2.38;;;1.27;;
14994;SDS011;7593;49.006;8.372;2022-09-09T11:58:36;4.00;;;1.33;;
14994;SDS011;7593;49.006;8.372;2022-09-09T12:04:05;3.05;;;1.40;;
14994;SDS011;7593;49.006;8.372;2022-09-09T12:06:41;4.25;;;1.65;;
14994;SDS011;7593;49.006;8.372;2022-09-09T12:09:15;3.63;;;1.45;;
14994;SDS011;7593;49.006;8.372;2022-09-09T12:11:45;2.88;;;1.30;;
14994;SDS011;7593;49.006;8.372;2022-09-09T12:14:20;4.20;;;1.50;;
14994;SDS011;7593;49.006;8.372;2022-09-09T12:16:48;3.90;;;1.40;;
14994;SDS011;7593;49.006;8.372;2022-09-09T12:19:21;2.85;;;1.10;;
14994;SDS011;7593;49.006;8.372;2022-09-09T12:21:50;4.00;;;1.42;;
14994;SDS011;7593;49.006;8.372;2022-09-09T12:24:27;3.88;;;1.33;;
14994;SDS011;7593;49.006;8.372;2022-09-09T12:27:02;6.32;;;1.50;;
14994;SDS011;7593;49.006;8.372;2022-09-09T12:29:41;2.47;;;1.48;;
14994;SDS011;7593;49.006;8.372;2022-09-09T12:32:15;4.00;;;1.42;;
14994;SDS011;7593;49.006;8.372;2022-09-09T12:34:44;3.65;;;1.10;;
14994;SDS011;7593;49.006;8.372;2022-09-09T12:37:15;4.05;;;1.52;;
14994;SDS011;7593;49.006;8.372;2022-09-09T12:39:51;3.15;;;1.10;;
14994;SDS011;7593;49.006;8.372;2022-09-09T12:42:21;2.85;;;1.30;;
14994;SDS011;7593;49.006;8.372;2022-09-09T12:44:54;2.92;;;1.30;;
14994;SDS011;7593;49.006;8.372;2022-09-09T12:47:23;3.88;;;1.50;;
14994;SDS011;7593;49.006;8.372;2022-09-09T12:49:55;4.10;;;1.40;;
14994;SDS011;7593;49.006;8.372;2022-09-09T12:52:23;5.20;;;1.25;;
14994;SDS011;7593;49.006;8.372;2022-09-09T12:54:55;2.53;;;1.30;;
14994;SDS011;7593;49.006;8.372;2022-09-09T12:57:23;2.53;;;1.08;;
14994;SDS011;7593;49.006;8.372;2022-09-09T12:59:51;4.00;;;1.10;;
14994;SDS011;7593;49.006;8.372;2022-09-09T13:02:31;5.13;;;1.70;;
14994;SDS011;7593;49.006;8.372;2022-09-09T13:05:06;4.75;;;1.60;;
14994;SDS011;7593;49.006;8.372;2022-09-09T13:07:39;6.35;;;1.50;;
14994;SDS011;7593;49.006;8.372;2022-09-09T13:10:07;5.03;;;1.20;;
14994;SDS011;7593;49.006;8.372;2022-09-09T13:12:37;3.75;;;1.10;;
14994;SDS011;7593;49.006;8.372;2022-09-09T13:15:09;2.75;;;1.20;;
14994;SDS011;7593;49.006;8.372;2022-09-09T13:17:40;3.70;;;1.75;;
14994;SDS011;7593;49.006;8.372;2022-09-09T13:20:14;5.43;;;1.95;;
14994;SDS011;7593;49.006;8.372;2022-09-09T13:22:43;6.88;;;1.90;;
14994;SDS011;7593;49.006;8.372;2022-09-09T13:25:17;4.25;;;1.80;;
14994;SDS011;7593;49.006;8.372;2022-09-09T13:27:54;3.05;;;0.95;;
14994;SDS011;7593;49.006;8.372;2022-09-09T13:30:25;6.30;;;1.70;;
14994;SDS011;7593;49.006;8.372;2022-09-09T13:33:04;4.32;;;1.40;;
14994;SDS011;7593;49.006;8.372;2022-09-09T13:35:45;6.10;;;1.60;;
14994;SDS011;7593;49.006;8.372;2022-09-09T13:38:14;3.63;;;1.40;;
14994;SDS011;7593;49.006;8.372;2022-09-09T13:40:51;2.85;;;1.30;;
14994;SDS011;7593;49.006;8.372;2022-09-09T13:43:21;5.00;;;1.30;;
14994;SDS011;7593;49.006;8.372;2022-09-09T13:45:54;4.28;;;1.60;;
14994;SDS011;7593;49.006;8.372;2022-09-09T13:48:22;8.77;;;1.73;;
14994;SDS011;7593;49.006;8.372;2022-09-09T13:50:54;5.22;;;1.50;;
14994;SDS011;7593;49.006;8.372;2022-09-09T13:53:22;3.83;;;1.85;;
14994;SDS011;7593;49.006;8.372;2022-09-09T13:55:49;4.15;;;1.65;;
14994;SDS011;7593;49.006;8.372;2022-09-09T13:58:17;5.43;;;1.60;;
14994;SDS011;7593;49.006;8.372;2022-09-09T14:00:44;6.72;;;1.65;;
14994;SDS011;7593;49.006;8.372;2022-09-09T14:03:13;4.55;;;1.40;;
14994;SDS011;7593;49.006;8.372;2022-09-09T14:05:40;5.50;;;1.70;;
14994;SDS011;7593;49.006;8.372;2022-09-09T14:08:07;4.03;;;1.88;;
14994;SDS011;7593;49.006;8.372;2022-09-09T14:10:41;15.00;;;4.63;;
14994;SDS011;7593;49.006;8.372;2022-09-09T14:13:08;9.05;;;2.72;;
14994;SDS011;7593;49.006;8.372;2022-09-09T14:15:35;11.43;;;3.17;;
14994;SDS011;7593;49.006;8.372;2022-09-09T14:18:02;1.90;;;1.20;;
14994;SDS011;7593;49.006;8.372;2022-09-09T14:20:30;5.78;;;2.65;;
14994;SDS011;7593;49.006;8.372;2022-09-09T14:22:57;6.10;;;2.22;;
14994;SDS011;7593;49.006;8.372;2022-09-09T14:25:24;5.35;;;1.80;;
14994;SDS011;7593;49.006;8.372;2022-09-09T14:27:51;4.78;;;1.90;;
14994;SDS011;7593;49.006;8.372;2022-09-09T14:30:17;4.57;;;2.10;;
14994;SDS011;7593;49.006;8.372;2022-09-09T14:32:44;7.88;;;1.92;;
14994;SDS011;7593;49.006;8.372;2022-09-09T14:35:11;5.75;;;1.70;;
14994;SDS011;7593;49.006;8.372;2022-09-09T14:37:40;3.83;;;1.88;;
14994;SDS011;7593;49.006;8.372;2022-09-09T14:40:07;3.42;;;1.75;;
14994;SDS011;7593;49.006;8.372;2022-09-09T14:42:34;4.40;;;2.20;;
14994;SDS011;7593;49.006;8.372;2022-09-09T14:45:01;5.93;;;3.08;;
14994;SDS011;7593;49.006;8.372;2022-09-09T14:47:27;33.63;;;3.42;;
14994;SDS011;7593;49.006;8.372;2022-09-09T14:49:55;6.00;;;2.40;;
14994;SDS011;7593;49.006;8.372;2022-09-09T14:52:22;8.32;;;2.30;;
14994;SDS011;7593;49.006;8.372;2022-09-09T14:54:50;6.05;;;2.00;;
14994;SDS011;7593;49.006;8.372;2022-09-09T14:57:16;8.20;;;1.73;;
14994;SDS011;7593;49.006;8.372;2022-09-09T14:59:44;4.68;;;1.85;;
14994;SDS011;7593;49.006;8.372;2022-09-09T15:02:11;4.70;;;1.80;;
14994;SDS011;7593;49.006;8.372;2022-09-09T15:04:38;4.90;;;1.67;;
14994;SDS011;7593;49.006;8.372;2022-09-09T15:07:05;4.60;;;2.03;;
14994;SDS011;7593;49.006;8.372;2022-09-09T15:09:32;6.80;;;2.20;;
14994;SDS011;7593;49.006;8.372;2022-09-09T15:12:00;5.60;;;2.13;;
14994;SDS011;7593;49.006;8.372;2022-09-09T15:14:27;5.93;;;2.33;;
14994;SDS011;7593;49.006;8.372;2022-09-09T15:16:56;5.72;;;2.30;;
14994;SDS011;7593;49.006;8.372;2022-09-09T15:19:23;3.65;;;1.98;;
14994;SDS011;7593;49.006;8.372;2022-09-09T15:21:50;5.07;;;1.60;;
14994;SDS011;7593;49.006;8.372;2022-09-09T15:24:17;6.05;;;2.20;;
14994;SDS011;7593;49.006;8.372;2022-09-09T15:26:43;4.32;;;1.60;;
14994;SDS011;7593;49.006;8.372;2022-09-09T15:29:12;3.17;;;1.70;;
14994;SDS011;7593;49.006;8.372;2022-09-09T15:31:38;5.07;;;1.70;;
14994;SDS011;7593;49.006;8.372;2022-09-09T15:34:06;3.67;;;1.40;;